Time;durP1;ratioP1;P1;durP2;ratioP2;P2;SDS_P1;SDS_P2;PMS_P1;PMS_P2;Temp;Humidity;BMP_temperature;BMP_pressure;BME280_temperature;BME280_humidity;BME280_pressure;Samples;Min_cycle;Max_cycle;Signal;HPM_P1;HPM_P2
2023/04/20 00:02:26;;;;;;;3.05;1.50;;;;;;;8.58;67.68;101893.59;6274912;28;20151;-81
2023/04/20 00:05:29;;;;;;;2.35;1.48;;;;;;;8.39;69.18;101889.72;6274760;28;20045;-82
2023/04/20 00:08:30;;;;;;;3.00;1.58;;;;;;;8.27;70.85;101895.25;6274640;28;20392;-81
2023/04/20 00:11:33;;;;;;;5.82;1.63;;;;;;;8.16;73.99;101892.91;6274922;28;20106;-82
2023/04/20 00:14:34;;;;;;;2.85;1.38;;;;;;;8.07;75.12;101906.22;6275011;28;20049;-83
2023/04/20 00:17:37;;;;;;;3.03;1.98;;;;;;;7.87;76.30;101889.25;6279707;28;20052;-82
2023/04/20 00:20:38;;;;;;;5.05;1.70;;;;;;;7.92;77.45;101880.41;6280192;28;20064;-82
2023/04/20 00:23:40;;;;;;;3.08;1.40;;;;;;;7.89;78.03;101866.50;6279474;28;20103;-82
2023/04/20 00:26:43;;;;;;;2.53;1.40;;;;;;;7.71;78.96;101871.31;6279777;28;20052;-81
2023/04/20 00:29:45;;;;;;;2.67;1.42;;;;;;;7.69;79.80;101871.34;6279611;28;20049;-81
2023/04/20 00:32:46;;;;;;;3.50;2.35;;;;;;;7.72;80.61;101889.59;6279220;28;20110;-82
2023/04/20 00:35:48;;;;;;;4.40;1.88;;;;;;;7.83;80.61;101889.34;6279599;28;20049;-82
2023/04/20 00:38:49;;;;;;;2.95;1.30;;;;;;;7.77;80.35;101876.41;6279269;28;20051;-82
2023/04/20 00:41:52;;;;;;;3.50;1.50;;;;;;;7.70;80.45;101872.22;6279464;28;20064;-82
2023/04/20 00:44:53;;;;;;;2.88;1.50;;;;;;;7.69;80.57;101863.50;6279214;28;20045;-82
2023/04/20 00:47:55;;;;;;;4.13;1.52;;;;;;;7.68;80.79;101860.94;6278940;28;20045;-81
2023/04/20 00:50:56;;;;;;;2.47;1.38;;;;;;;7.58;81.43;101852.41;6279380;28;20361;-81
2023/04/20 00:53:59;;;;;;;6.15;1.60;;;;;;;7.55;81.85;101849.88;6279098;28;20076;-81
2023/04/20 00:57:04;;;;;;;4.32;1.95;;;;;;;7.53;82.37;101836.81;6278891;28;20053;-82
2023/04/20 01:00:07;;;;;;;2.85;1.73;;;;;;;7.50;82.84;101839.53;6278905;28;20091;-82
2023/04/20 01:03:08;;;;;;;3.03;2.00;;;;;;;7.36;83.52;101839.84;6278622;28;20049;-81
2023/04/20 01:06:10;;;;;;;2.22;1.60;;;;;;;7.29;84.03;101834.78;6277103;28;20060;-81
2023/04/20 01:09:12;;;;;;;2.15;1.40;;;;;;;7.40;84.78;101844.97;6270261;28;20045;-82
2023/04/20 01:12:15;;;;;;;4.35;1.67;;;;;;;7.36;84.49;101841.59;6278498;28;20382;-81
2023/04/20 01:15:16;;;;;;;5.47;1.80;;;;;;;7.12;86.02;101830.75;6268133;28;20056;-81
2023/04/20 01:18:18;;;;;;;3.05;1.70;;;;;;;7.16;86.17;101830.72;6271041;28;20048;-82
2023/04/20 01:21:21;;;;;;;3.20;1.60;;;;;;;7.17;86.07;101828.06;6265312;28;20129;-81
2023/04/20 01:24:24;;;;;;;4.32;1.80;;;;;;;7.13;87.17;101829.03;6269140;28;20055;-82
2023/04/20 01:27:25;;;;;;;4.07;1.80;;;;;;;7.17;87.46;101833.28;6277771;28;20049;-81
2023/04/20 01:30:27;;;;;;;4.38;1.73;;;;;;;7.14;87.89;101824.66;6278091;28;20460;-81
2023/04/20 01:33:29;;;;;;;2.92;1.58;;;;;;;7.22;88.35;101817.50;6278161;28;20053;-82
2023/04/20 01:36:31;;;;;;;3.88;1.83;;;;;;;7.30;87.74;101824.28;6277764;28;20052;-82
2023/04/20 01:39:34;;;;;;;11.63;1.77;;;;;;;7.21;88.29;101807.94;6277913;28;20124;-82
2023/04/20 01:42:36;;;;;;;2.60;1.67;;;;;;;7.05;89.22;101807.44;6278040;28;20183;-82
2023/04/20 01:45:38;;;;;;;2.75;1.80;;;;;;;7.15;89.44;101806.31;6277595;28;20056;-82
2023/04/20 01:48:39;;;;;;;3.67;1.58;;;;;;;7.26;89.75;101806.06;6278160;28;20041;-82
2023/04/20 01:51:40;;;;;;;2.55;1.77;;;;;;;7.36;89.58;101802.38;6278101;28;20072;-82
2023/04/20 01:54:43;;;;;;;3.65;1.83;;;;;;;7.26;89.92;101812.16;6277527;28;20072;-82
2023/04/20 01:57:45;;;;;;;3.50;1.75;;;;;;;7.26;89.27;101814.78;6277258;28;20528;-82
2023/04/20 02:00:46;;;;;;;3.67;2.17;;;;;;;7.27;90.93;101792.13;6277782;28;20057;-82
2023/04/20 02:03:48;;;;;;;3.45;1.83;;;;;;;7.20;91.07;101795.78;6277202;28;20056;-82
2023/04/20 02:06:50;;;;;;;3.05;1.95;;;;;;;7.10;91.49;101780.28;6277235;28;20045;-81
2023/04/20 02:09:53;;;;;;;4.65;1.70;;;;;;;7.12;92.62;101777.63;6270981;28;20116;-82
2023/04/20 02:12:54;;;;;;;8.40;1.85;;;;;;;7.14;91.66;101775.88;6277402;28;20056;-82
2023/04/20 02:15:55;;;;;;;11.43;2.35;;;;;;;7.12;92.76;101778.50;6266525;28;20049;-82
2023/04/20 02:18:57;;;;;;;2.97;1.65;;;;;;;7.19;92.78;101786.22;6276813;28;20052;-81
2023/04/20 02:21:58;;;;;;;2.67;1.70;;;;;;;7.12;93.60;101798.53;6277451;28;20056;-81
2023/04/20 02:25:02;;;;;;;2.17;1.30;;;;;;;7.02;94.67;101791.81;6276679;28;20052;-82
2023/04/20 02:28:03;;;;;;;6.15;1.80;;;;;;;6.96;95.22;101773.66;6271079;28;20495;-81
2023/04/20 02:31:05;;;;;;;6.68;2.10;;;;;;;6.94;95.34;101767.59;6267276;28;20454;-81
2023/04/20 02:34:08;;;;;;;4.55;2.00;;;;;;;6.89;95.60;101767.69;6276511;28;20448;-81
2023/04/20 02:37:09;;;;;;;4.45;1.80;;;;;;;6.96;96.19;101766.69;6267790;28;20053;-82
2023/04/20 02:40:13;;;;;;;3.95;2.20;;;;;;;6.88;96.77;101770.34;6270268;28;20042;-81
2023/04/20 02:43:14;;;;;;;3.45;2.03;;;;;;;6.93;97.47;101771.97;6261865;28;20053;-81
2023/04/20 02:46:17;;;;;;;4.72;1.77;;;;;;;6.99;97.20;101763.97;6260478;28;20425;-81
2023/04/20 02:49:18;;;;;;;10.00;1.52;;;;;;;6.83;96.88;101763.47;6273021;28;20049;-81
2023/04/20 02:52:20;;;;;;;4.55;2.28;;;;;;;7.00;97.33;101770.09;6276290;28;20064;-81
2023/04/20 02:55:22;;;;;;;3.47;1.88;;;;;;;6.99;97.37;101777.03;6270572;28;20343;-81
2023/04/20 02:58:24;;;;;;;5.03;2.05;;;;;;;7.07;97.54;101759.44;6276000;28;20060;-81
2023/04/20 03:01:25;;;;;;;4.45;1.83;;;;;;;7.05;96.62;101763.84;6269784;28;20515;-81
2023/04/20 03:04:27;;;;;;;5.20;2.00;;;;;;;6.90;98.90;101750.25;6275182;28;20053;-81
2023/04/20 03:07:28;;;;;;;3.70;1.88;;;;;;;6.91;98.92;101754.63;6275898;28;20450;-81
2023/04/20 03:10:31;;;;;;;3.90;1.50;;;;;;;6.88;99.65;101754.66;6269389;28;20052;-82
2023/04/20 03:13:32;;;;;;;6.10;1.80;;;;;;;6.86;99.08;101758.19;6275811;28;20052;-82
2023/04/20 03:16:34;;;;;;;7.13;2.25;;;;;;;6.87;100.00;101743.34;6275906;28;20049;-83
2023/04/20 03:19:35;;;;;;;3.08;1.80;;;;;;;6.90;100.00;101740.66;6271760;28;20485;-82
2023/04/20 03:22:37;;;;;;;8.93;1.95;;;;;;;6.90;100.00;101737.19;6275719;28;20048;-82
2023/04/20 03:25:40;;;;;;;3.80;1.50;;;;;;;6.93;100.00;101752.81;6275950;28;20037;-81
2023/04/20 03:28:41;;;;;;;1.77;1.33;;;;;;;6.93;100.00;101739.75;6268510;28;20574;-82
2023/04/20 03:31:43;;;;;;;3.80;2.10;;;;;;;6.97;100.00;101744.00;6258807;28;20036;-82
2023/04/20 03:34:44;;;;;;;7.55;1.92;;;;;;;6.85;100.00;101740.75;6259676;28;20043;-81
2023/04/20 03:37:45;;;;;;;2.72;1.63;;;;;;;6.89;100.00;101741.56;6267566;28;20075;-82
2023/04/20 03:40:48;;;;;;;8.20;2.03;;;;;;;6.83;100.00;101750.41;6275306;28;20053;-82
2023/04/20 03:43:50;;;;;;;3.45;1.58;;;;;;;6.96;100.00;101748.38;6268652;28;20068;-81
2023/04/20 03:46:51;;;;;;;2.83;1.48;;;;;;;6.99;100.00;101755.28;6260561;28;20481;-81
2023/04/20 03:49:52;;;;;;;2.15;1.40;;;;;;;6.94;100.00;101757.13;6258933;28;20047;-82
2023/04/20 03:52:54;;;;;;;3.50;1.70;;;;;;;6.93;100.00;101764.13;6258785;28;20053;-82
2023/04/20 03:55:57;;;;;;;2.97;1.70;;;;;;;7.02;100.00;101757.84;6258713;28;20056;-82
2023/04/20 03:58:59;;;;;;;2.95;1.50;;;;;;;6.91;100.00;101763.31;6257515;28;20766;-82
2023/04/20 04:02:04;;;;;;;4.88;1.52;;;;;;;6.77;100.00;101753.16;6261699;28;20049;-82
2023/04/20 04:05:07;;;;;;;4.63;1.73;;;;;;;6.80;100.00;101762.66;6259643;28;20051;-82
2023/04/20 04:08:08;;;;;;;8.43;1.60;;;;;;;6.90;100.00;101755.47;6258981;28;20056;-82
2023/04/20 04:11:11;;;;;;;4.43;1.55;;;;;;;6.85;100.00;101753.81;6257117;28;20052;-81
2023/04/20 04:14:13;;;;;;;7.65;1.77;;;;;;;6.80;100.00;101753.06;6258473;28;20611;-82
2023/04/20 04:17:14;;;;;;;2.95;2.00;;;;;;;6.88;100.00;101755.53;6260091;28;20049;-81
2023/04/20 04:20:16;;;;;;;4.93;1.42;;;;;;;6.83;100.00;101752.16;6273717;28;20037;-82
2023/04/20 04:23:17;;;;;;;4.78;2.10;;;;;;;6.81;100.00;101756.53;6274794;28;20116;-81
2023/04/20 04:26:23;;;;;;;3.13;1.48;;;;;;;6.74;100.00;101757.56;6267333;28;20045;-82
2023/04/20 04:29:25;;;;;;;4.93;2.33;;;;;;;6.73;100.00;101754.09;6268695;28;20096;-82
2023/04/20 04:32:27;;;;;;;4.95;1.92;;;;;;;6.82;100.00;101751.28;6275433;28;20044;-82
2023/04/20 04:35:29;;;;;;;4.88;1.88;;;;;;;6.80;100.00;101750.44;6274232;28;20361;-81
2023/04/20 04:38:32;;;;;;;6.10;1.67;;;;;;;6.79;100.00;101751.34;6274590;28;20052;-82
2023/04/20 04:41:35;;;;;;;6.55;2.00;;;;;;;6.72;100.00;101752.41;6274913;28;20063;-82
2023/04/20 04:44:38;;;;;;;4.13;1.77;;;;;;;6.74;100.00;101752.34;6274507;28;20041;-82
2023/04/20 04:47:41;;;;;;;5.80;2.33;;;;;;;6.70;100.00;101746.31;6274177;28;20045;-82
2023/04/20 04:50:42;;;;;;;3.72;2.08;;;;;;;6.66;100.00;101755.13;6274649;28;20049;-82
2023/04/20 04:53:46;;;;;;;10.20;2.40;;;;;;;6.66;100.00;101751.66;6274711;28;20041;-82
2023/04/20 04:56:49;;;;;;;3.13;1.80;;;;;;;6.80;100.00;101749.59;6274987;28;20060;-82
2023/04/20 04:59:50;;;;;;;4.22;2.00;;;;;;;6.86;100.00;101763.41;6274573;28;20179;-83
2023/04/20 05:02:52;;;;;;;2.42;1.48;;;;;;;6.89;100.00;101762.47;6278572;28;20055;-82
2023/04/20 05:05:55;;;;;;;7.03;2.40;;;;;;;6.85;100.00;101761.66;6262059;28;20046;-83
2023/04/20 05:08:56;;;;;;;4.03;1.77;;;;;;;6.94;100.00;101758.00;6269554;28;20049;-82
2023/04/20 05:11:59;;;;;;;6.10;1.83;;;;;;;6.93;100.00;101766.72;6265623;28;20060;-82
2023/04/20 05:15:01;;;;;;;5.57;1.88;;;;;;;6.90;100.00;101771.16;6273899;28;20041;-82
2023/04/20 05:18:02;;;;;;;5.63;2.28;;;;;;;6.93;100.00;101774.56;6278050;28;20361;-83
2023/04/20 05:21:04;;;;;;;2.55;1.70;;;;;;;6.80;100.00;101775.72;6274878;28;20037;-82
2023/04/20 05:24:06;;;;;;;5.55;2.45;;;;;;;6.78;100.00;101772.28;6277048;28;20037;-82
2023/04/20 05:27:10;;;;;;;6.25;2.03;;;;;;;6.84;100.00;101775.63;6276937;28;20044;-82
2023/04/20 05:30:11;;;;;;;4.00;2.10;;;;;;;6.89;100.00;101778.13;6277999;28;20041;-83
2023/04/20 05:33:13;;;;;;;6.05;2.95;;;;;;;6.97;100.00;101777.97;6277513;28;20130;-83
2023/04/20 05:36:15;;;;;;;2.85;1.80;;;;;;;6.85;100.00;101779.94;6278049;28;20044;-82
2023/04/20 05:39:16;;;;;;;6.18;2.72;;;;;;;6.92;100.00;101788.53;6277684;28;20037;-83
2023/04/20 05:42:19;;;;;;;4.85;2.13;;;;;;;6.91;100.00;101786.81;6277886;28;20044;-83
2023/04/20 05:45:20;;;;;;;4.88;2.13;;;;;;;6.84;100.00;101787.84;6277878;28;20239;-83
2023/04/20 05:48:22;;;;;;;4.50;2.28;;;;;;;6.85;100.00;101785.19;6277476;28;20045;-83
2023/04/20 05:51:27;;;;;;;8.10;2.03;;;;;;;6.88;100.00;101788.63;6277828;28;20342;-82
2023/04/20 05:54:29;;;;;;;10.23;2.90;;;;;;;6.98;100.00;101788.38;6278064;28;20056;-83
2023/04/20 05:57:32;;;;;;;3.80;2.08;;;;;;;7.00;100.00;101788.38;6277720;28;20052;-82
2023/04/20 06:00:34;;;;;;;5.60;2.55;;;;;;;6.92;100.00;101791.16;6278263;28;20119;-83
2023/04/20 06:03:35;;;;;;;4.45;2.35;;;;;;;7.00;100.00;101788.38;6277409;28;20964;-83
2023/04/20 06:06:37;;;;;;;4.45;1.92;;;;;;;7.01;100.00;101787.47;6277528;28;20048;-83
2023/04/20 06:09:38;;;;;;;3.80;2.08;;;;;;;6.96;100.00;101782.34;6277257;28;20486;-83
2023/04/20 06:12:41;;;;;;;4.78;2.40;;;;;;;7.02;100.00;101783.97;6276337;28;20049;-83
2023/04/20 06:15:42;;;;;;;5.55;2.78;;;;;;;6.98;100.00;101785.78;6273738;28;20429;-83
2023/04/20 06:18:44;;;;;;;4.80;2.47;;;;;;;7.05;100.00;101792.59;6272701;28;20049;-82
2023/04/20 06:21:45;;;;;;;5.82;2.45;;;;;;;7.00;100.00;101789.25;6273689;28;20483;-82
2023/04/20 06:24:47;;;;;;;3.53;1.92;;;;;;;7.02;100.00;101792.66;6266750;28;20052;-83
2023/04/20 06:27:50;;;;;;;9.02;2.50;;;;;;;7.14;100.00;101798.53;6276825;28;20314;-83
2023/04/20 06:30:51;;;;;;;4.05;1.98;;;;;;;7.05;100.00;101792.59;6276993;28;20365;-83
2023/04/20 06:33:53;;;;;;;4.90;2.58;;;;;;;7.03;100.00;101783.91;6277073;28;20072;-83
2023/04/20 06:36:54;;;;;;;4.10;2.40;;;;;;;7.17;100.00;101782.75;6276742;28;20044;-83
2023/04/20 06:39:55;;;;;;;4.38;2.15;;;;;;;7.05;100.00;101782.16;6276877;28;20182;-82
2023/04/20 06:42:58;;;;;;;7.20;2.30;;;;;;;7.04;100.00;101784.78;6276738;28;20135;-83
2023/04/20 06:46:00;;;;;;;5.35;2.15;;;;;;;7.12;100.00;101778.50;6276937;28;20052;-83
2023/04/20 06:49:01;;;;;;;5.85;2.13;;;;;;;7.17;100.00;101778.38;6267353;28;20456;-83
2023/04/20 06:52:03;;;;;;;8.48;2.30;;;;;;;7.17;100.00;101780.16;6260299;28;20361;-82
2023/04/20 06:55:05;;;;;;;5.35;2.45;;;;;;;7.29;100.00;101774.66;6263819;28;20057;-84
2023/04/20 06:58:08;;;;;;;4.80;2.13;;;;;;;7.41;100.00;101781.34;6267692;28;20041;-83
2023/04/20 07:01:09;;;;;;;3.88;2.63;;;;;;;7.51;100.00;101778.47;6270165;28;20045;-83
2023/04/20 07:04:11;;;;;;;4.65;2.42;;;;;;;7.48;100.00;101788.13;6270819;28;20588;-82
2023/04/20 07:07:12;;;;;;;9.45;2.38;;;;;;;7.51;100.00;101785.47;6273280;28;20072;-81
2023/04/20 07:10:14;;;;;;;4.80;2.55;;;;;;;7.46;100.00;101787.34;6266472;28;20052;-80
2023/04/20 07:13:17;;;;;;;5.30;2.42;;;;;;;7.49;100.00;101785.47;6270291;28;20044;-80
2023/04/20 07:16:19;;;;;;;6.07;2.25;;;;;;;7.46;100.00;101795.19;6262703;28;20049;-79
2023/04/20 07:19:20;;;;;;;7.32;2.40;;;;;;;7.41;100.00;101791.81;6273155;28;20086;-80
2023/04/20 07:22:22;;;;;;;6.40;2.75;;;;;;;7.52;100.00;101788.03;6275648;28;20456;-82
2023/04/20 07:25:24;;;;;;;5.18;2.50;;;;;;;7.56;100.00;101791.44;6271364;28;20041;-81
2023/04/20 07:28:27;;;;;;;5.15;2.17;;;;;;;7.61;100.00;101779.09;6271919;28;20056;-82
2023/04/20 07:31:28;;;;;;;6.63;2.47;;;;;;;7.76;100.00;101786.56;6273922;28;20052;-81
2023/04/20 07:34:30;;;;;;;9.40;2.75;;;;;;;7.97;100.00;101785.19;6273389;28;20049;-82
2023/04/20 07:37:31;;;;;;;4.20;2.25;;;;;;;8.02;100.00;101785.06;6269164;28;20052;-81
2023/04/20 07:40:32;;;;;;;7.60;2.78;;;;;;;7.96;100.00;101787.84;6262041;28;20557;-79
2023/04/20 07:43:35;;;;;;;9.65;3.20;;;;;;;8.02;100.00;101792.91;6256666;28;20041;-80
2023/04/20 07:46:37;;;;;;;7.80;2.20;;;;;;;8.17;100.00;101794.25;6274434;28;20048;-80
2023/04/20 07:49:39;;;;;;;6.82;2.40;;;;;;;8.19;100.00;101797.72;6274980;28;20426;-80
2023/04/20 07:52:43;;;;;;;9.65;2.50;;;;;;;8.32;100.00;101802.56;6274961;28;20076;-80
2023/04/20 07:55:44;;;;;;;6.32;2.53;;;;;;;8.24;100.00;101804.53;6274744;28;20070;-79
2023/04/20 07:58:47;;;;;;;6.45;2.53;;;;;;;8.37;100.00;101800.72;6274801;28;20045;-80
2023/04/20 08:01:49;;;;;;;3.95;2.33;;;;;;;8.50;100.00;101803.03;6274974;28;20045;-80
2023/04/20 08:04:50;;;;;;;7.10;2.50;;;;;;;8.38;100.00;101796.34;6274527;28;20349;-80
2023/04/20 08:07:52;;;;;;;5.63;2.53;;;;;;;8.42;100.00;101797.97;6274922;28;20053;-80
2023/04/20 08:10:55;;;;;;;5.70;2.63;;;;;;;8.52;100.00;101798.56;6274798;28;20053;-80
2023/04/20 08:13:59;;;;;;;6.53;3.13;;;;;;;8.54;100.00;101802.00;6274850;28;20049;-80
2023/04/20 08:17:00;;;;;;;4.90;2.50;;;;;;;8.69;100.00;101795.50;6274820;28;20430;-80
2023/04/20 08:20:03;;;;;;;5.00;2.78;;;;;;;8.71;97.45;101797.16;6274780;28;20048;-80
2023/04/20 08:23:05;;;;;;;5.65;2.88;;;;;;;8.80;95.80;101798.66;6274565;28;20115;-78
2023/04/20 08:26:06;;;;;;;7.85;3.13;;;;;;;8.84;94.65;101795.88;6274693;28;20353;-79
2023/04/20 08:29:09;;;;;;;4.80;2.92;;;;;;;8.94;93.79;101800.88;6274521;28;20060;-79
2023/04/20 08:32:11;;;;;;;7.43;3.55;;;;;;;8.83;92.76;101804.66;6274315;28;20060;-79
2023/04/20 08:35:12;;;;;;;6.20;2.90;;;;;;;8.82;92.73;101807.34;6274418;28;20128;-80
2023/04/20 08:38:14;;;;;;;6.10;2.47;;;;;;;8.81;91.97;101806.50;6278929;28;20053;-79
2023/04/20 08:41:15;;;;;;;6.47;3.00;;;;;;;8.75;91.96;101800.53;6279541;28;20061;-79
2023/04/20 08:44:18;;;;;;;8.95;3.75;;;;;;;8.71;92.17;101802.38;6271115;28;20049;-79
2023/04/20 08:47:21;;;;;;;9.93;3.42;;;;;;;8.71;91.21;101799.78;6279147;28;20072;-78
2023/04/20 08:50:22;;;;;;;7.88;3.95;;;;;;;8.69;91.21;101798.97;6279256;28;20041;-79
2023/04/20 08:53:23;;;;;;;4.68;2.88;;;;;;;8.73;91.22;101795.34;6279055;28;20057;-79
2023/04/20 08:56:33;;;;;;;7.50;3.80;;;;;;;8.85;90.70;101805.47;6278989;28;20045;-79
2023/04/20 08:59:38;;;;;;;5.38;2.83;;;;;;;8.73;90.01;101803.22;6278741;28;20456;-79
2023/04/20 09:02:49;;;;;;;6.25;2.88;;;;;;;8.77;91.93;101804.00;6279094;28;20060;-78
2023/04/20 09:05:50;;;;;;;8.98;2.90;;;;;;;8.80;92.07;101807.38;6278436;28;20636;-79
2023/04/20 09:08:52;;;;;;;6.95;3.38;;;;;;;8.85;90.16;101804.59;6278231;28;20060;-80
2023/04/20 09:12:01;;;;;;;4.45;2.88;;;;;;;8.86;88.99;101806.34;6278588;28;20060;-80
2023/04/20 09:15:05;;;;;;;13.03;3.93;;;;;;;8.95;88.02;101811.31;6278901;28;20048;-79
2023/04/20 09:18:14;;;;;;;12.48;4.10;;;;;;;9.19;89.70;101803.63;6278394;28;20052;-80
2023/04/20 09:21:15;;;;;;;5.45;2.80;;;;;;;9.45;88.28;101806.31;6278589;28;20051;-80
2023/04/20 09:24:17;;;;;;;8.95;3.72;;;;;;;9.57;85.89;101798.00;6269855;28;20052;-80
2023/04/20 09:27:21;;;;;;;5.80;2.90;;;;;;;9.54;83.64;101797.28;6278307;28;20049;-80
2023/04/20 09:30:24;;;;;;;5.28;2.72;;;;;;;9.52;81.72;101799.94;6278077;28;20049;-80
2023/04/20 09:33:28;;;;;;;6.10;2.97;;;;;;;9.59;83.65;101798.00;6278166;28;20045;-79
2023/04/20 09:36:37;;;;;;;6.35;2.95;;;;;;;9.63;81.79;101802.22;6277509;28;20049;-80
2023/04/20 09:39:43;;;;;;;5.65;3.28;;;;;;;9.65;80.85;101797.78;6278156;28;20045;-80
2023/04/20 09:42:45;;;;;;;7.53;3.47;;;;;;;9.67;79.85;101798.56;6277955;28;20053;-79
2023/04/20 09:45:49;;;;;;;4.40;2.80;;;;;;;9.75;80.00;101799.19;6277874;28;20083;-79
2023/04/20 09:48:51;;;;;;;4.97;2.85;;;;;;;9.78;78.57;101793.00;6277351;28;20060;-80
2023/04/20 09:51:52;;;;;;;6.10;2.75;;;;;;;9.92;79.51;101793.38;6278020;28;20052;-80
2023/04/20 09:54:54;;;;;;;8.23;3.22;;;;;;;9.94;76.89;101788.91;6277601;28;20060;-79
2023/04/20 09:57:57;;;;;;;9.05;3.50;;;;;;;10.03;76.81;101785.97;6277332;28;20397;-79
2023/04/20 10:01:01;;;;;;;4.90;2.80;;;;;;;10.13;77.59;101783.91;6277634;28;20133;-80
2023/04/20 10:04:06;;;;;;;5.10;3.30;;;;;;;10.11;74.14;101780.47;6277424;28;20048;-79
2023/04/20 10:07:08;;;;;;;5.43;2.95;;;;;;;10.05;74.38;101784.19;6277213;28;20049;-79
2023/04/20 10:10:11;;;;;;;8.35;3.63;;;;;;;10.06;73.96;101792.91;6276951;28;20045;-80
2023/04/20 10:13:13;;;;;;;6.22;2.92;;;;;;;10.18;73.96;101786.38;6277066;28;20052;-79
2023/04/20 10:16:19;;;;;;;4.00;2.53;;;;;;;10.16;71.73;101796.94;6277143;28;20059;-79
2023/04/20 10:19:21;;;;;;;6.22;3.22;;;;;;;10.19;70.64;101786.31;6276929;28;20056;-80
2023/04/20 10:22:29;;;;;;;9.45;2.65;;;;;;;10.15;72.18;101789.97;6277130;28;20045;-79
2023/04/20 10:25:30;;;;;;;6.30;3.00;;;;;;;10.14;72.97;101794.38;6277214;28;20052;-79
2023/04/20 10:28:39;;;;;;;4.57;2.75;;;;;;;10.10;73.31;101803.25;6276416;28;20353;-79
2023/04/20 10:31:42;;;;;;;6.85;3.10;;;;;;;10.16;72.19;101797.78;6277116;28;20041;-79
2023/04/20 10:34:43;;;;;;;5.00;2.92;;;;;;;10.28;72.25;101793.06;6276670;28;20048;-79
2023/04/20 10:37:49;;;;;;;7.43;3.10;;;;;;;10.28;73.37;101793.06;6276375;28;20049;-79
2023/04/20 10:40:50;;;;;;;6.00;3.70;;;;;;;10.30;73.44;101791.22;6276751;28;20056;-79
2023/04/20 10:43:51;;;;;;;4.80;3.08;;;;;;;10.41;74.12;101787.31;6276378;28;20453;-79
2023/04/20 10:46:55;;;;;;;4.72;2.58;;;;;;;10.60;73.35;101794.53;6276211;28;20068;-79
2023/04/20 10:50:06;;;;;;;6.10;2.70;;;;;;;10.64;71.52;101794.34;6276121;28;20049;-79
2023/04/20 10:53:17;;;;;;;4.43;2.95;;;;;;;10.52;70.41;101781.66;6276498;28;20453;-79
2023/04/20 10:56:19;;;;;;;3.20;1.75;;;;;;;10.53;70.65;101790.38;6276264;28;20052;-79
2023/04/20 10:59:23;;;;;;;6.13;3.05;;;;;;;10.57;68.77;101778.84;6275066;28;20118;-78
2023/04/20 11:02:26;;;;;;;4.22;2.80;;;;;;;10.67;70.06;101777.59;6276108;28;20356;-79
2023/04/20 11:05:28;;;;;;;4.35;2.38;;;;;;;10.82;69.42;101769.16;6275858;28;20078;-79
2023/04/20 11:08:37;;;;;;;5.07;2.75;;;;;;;11.11;69.18;101768.00;6275646;28;20049;-79
2023/04/20 11:11:38;;;;;;;6.72;2.30;;;;;;;11.37;67.35;101761.72;6275614;28;20080;-79
2023/04/20 11:14:51;;;;;;;6.72;2.90;;;;;;;11.52;64.17;101762.03;6275766;28;20049;-80
2023/04/20 11:17:54;;;;;;;4.88;2.55;;;;;;;11.37;63.86;101764.34;6275832;28;20084;-80
2023/04/20 11:20:56;;;;;;;9.20;2.53;;;;;;;11.46;64.09;101760.50;6275603;28;20040;-79
2023/04/20 11:23:57;;;;;;;5.50;2.92;;;;;;;11.37;62.16;101766.13;6275568;28;20045;-79
2023/04/20 11:27:00;;;;;;;5.40;2.72;;;;;;;11.29;66.36;101760.31;6275391;28;20045;-79
2023/04/20 11:30:04;;;;;;;4.50;2.35;;;;;;;11.19;66.27;101762.47;6275466;28;20076;-79
2023/04/20 11:33:07;;;;;;;4.70;2.47;;;;;;;11.21;66.01;101763.25;6275256;28;20140;-79
2023/04/20 11:36:18;;;;;;;5.93;2.72;;;;;;;11.15;65.59;101760.88;6275356;28;20049;-79
2023/04/20 11:39:23;;;;;;;5.72;2.80;;;;;;;11.43;67.79;101755.34;6267306;28;20053;-79
2023/04/20 11:42:24;;;;;;;5.15;2.75;;;;;;;11.85;64.14;101750.09;6275200;28;20134;-80
2023/04/20 11:45:26;;;;;;;7.32;3.38;;;;;;;11.67;63.44;101742.94;6275077;28;20353;-79
2023/04/20 11:48:31;;;;;;;8.32;2.88;;;;;;;11.61;65.69;101743.22;6275240;28;20052;-80
2023/04/20 11:51:32;;;;;;;4.70;2.75;;;;;;;11.52;65.82;101730.44;6274615;28;20440;-79
2023/04/20 11:54:33;;;;;;;3.55;2.40;;;;;;;11.50;66.79;101729.66;6275092;28;20053;-79
2023/04/20 11:57:35;;;;;;;5.40;2.60;;;;;;;11.48;67.08;101734.09;6274892;28;20059;-79
2023/04/20 12:00:36;;;;;;;3.30;2.25;;;;;;;11.59;62.90;101730.13;6275135;28;20064;-79
2023/04/20 12:03:39;;;;;;;5.40;2.95;;;;;;;11.51;63.03;101729.56;6274877;28;20056;-79
2023/04/20 12:06:41;;;;;;;5.32;2.60;;;;;;;11.74;64.52;101730.41;6274626;28;20045;-79
2023/04/20 12:09:43;;;;;;;5.85;2.90;;;;;;;11.78;63.19;101732.81;6274899;28;20079;-79
2023/04/20 12:12:44;;;;;;;4.00;2.40;;;;;;;11.68;62.50;101724.47;6278817;28;20049;-79
2023/04/20 12:15:46;;;;;;;4.68;2.20;;;;;;;11.73;63.15;101724.28;6280006;28;20071;-80
2023/04/20 12:18:49;;;;;;;3.75;2.20;;;;;;;12.24;64.05;101727.38;6279948;28;20056;-79
2023/04/20 12:21:50;;;;;;;4.53;2.05;;;;;;;12.99;60.45;101716.84;6280201;28;20052;-79
2023/04/20 12:24:51;;;;;;;4.72;2.40;;;;;;;13.38;58.19;101706.16;6279870;28;20056;-79
2023/04/20 12:27:53;;;;;;;3.92;2.20;;;;;;;13.47;57.49;101702.19;6279241;28;20053;-79
2023/04/20 12:30:54;;;;;;;4.15;2.17;;;;;;;13.61;57.33;101697.06;6279666;28;20044;-79
2023/04/20 12:33:57;;;;;;;3.65;2.17;;;;;;;13.83;56.92;101696.84;6279503;28;20052;-79
2023/04/20 12:36:59;;;;;;;4.78;2.83;;;;;;;14.21;54.92;101683.38;6279209;28;20049;-79
2023/04/20 12:40:01;;;;;;;5.40;2.55;;;;;;;14.11;54.58;101685.66;6278785;28;20354;-79
2023/04/20 12:43:02;;;;;;;3.13;2.30;;;;;;;14.39;56.89;101681.53;6279747;28;20048;-79
2023/04/20 12:46:04;;;;;;;8.38;2.97;;;;;;;14.63;54.05;101684.69;6279206;28;20081;-79
2023/04/20 12:49:07;;;;;;;6.18;2.75;;;;;;;14.07;53.61;101686.75;6278934;28;20357;-79
2023/04/20 12:52:08;;;;;;;5.30;2.53;;;;;;;13.58;53.46;101684.03;6279242;28;20175;-79
2023/04/20 12:55:10;;;;;;;4.32;2.30;;;;;;;13.37;54.25;101683.34;6279339;28;20130;-79
2023/04/20 12:58:12;;;;;;;6.25;2.70;;;;;;;13.19;56.67;101678.94;6278713;28;20053;-79
2023/04/20 13:01:13;;;;;;;4.88;2.35;;;;;;;13.00;56.11;101681.63;6278963;28;20049;-79
2023/04/20 13:04:16;;;;;;;8.40;2.40;;;;;;;12.90;54.83;101675.09;6278801;28;20044;-79
2023/04/20 13:07:17;;;;;;;3.83;1.88;;;;;;;13.19;55.07;101663.94;6278206;28;20045;-79
2023/04/20 13:10:19;;;;;;;5.00;2.65;;;;;;;13.60;53.13;101668.13;6278399;28;20052;-79
2023/04/20 13:13:20;;;;;;;3.33;1.88;;;;;;;13.43;54.91;101669.81;6278681;28;20052;-79
2023/04/20 13:16:21;;;;;;;4.97;2.25;;;;;;;13.17;52.56;101673.75;6278945;28;20049;-79
2023/04/20 13:19:24;;;;;;;3.25;2.20;;;;;;;13.17;55.02;101672.84;6278106;28;20057;-79
2023/04/20 13:22:25;;;;;;;2.97;2.17;;;;;;;13.17;53.45;101671.09;6278124;28;20053;-79
2023/04/20 13:25:31;;;;;;;5.03;2.83;;;;;;;13.43;52.71;101668.97;6278453;28;20060;-79
2023/04/20 13:28:33;;;;;;;3.65;2.08;;;;;;;13.44;53.20;101663.63;6278061;28;20442;-79
2023/04/20 13:31:35;;;;;;;7.88;2.38;;;;;;;13.51;55.72;101658.88;6278336;28;20041;-79
2023/04/20 13:34:38;;;;;;;4.55;2.25;;;;;;;13.69;54.12;101663.22;6277787;28;20179;-79
2023/04/20 13:37:40;;;;;;;4.50;2.65;;;;;;;13.64;52.61;101665.22;6278216;28;20448;-79
2023/04/20 13:40:43;;;;;;;5.75;2.35;;;;;;;13.71;52.18;101671.88;6278043;28;20056;-79
2023/04/20 13:43:44;;;;;;;4.13;2.08;;;;;;;13.84;50.71;101669.47;6277751;28;20095;-79
2023/04/20 13:46:47;;;;;;;4.88;2.35;;;;;;;13.78;49.38;101668.94;6277867;28;20052;-79
2023/04/20 13:49:50;;;;;;;4.00;2.35;;;;;;;13.69;49.94;101660.56;6277763;28;20049;-79
2023/04/20 13:52:51;;;;;;;4.22;2.58;;;;;;;13.67;51.83;101657.16;6277793;28;20049;-79
2023/04/20 13:55:53;;;;;;;4.47;2.67;;;;;;;13.54;53.00;101664.00;6277859;28;20060;-79
2023/04/20 13:58:54;;;;;;;7.18;2.92;;;;;;;13.39;54.68;101660.34;6277217;28;20425;-79
2023/04/20 14:01:56;;;;;;;3.95;2.67;;;;;;;13.44;55.19;101657.47;6277878;28;20049;-79
2023/04/20 14:04:58;;;;;;;7.00;2.50;;;;;;;13.51;53.17;101656.22;6277233;28;20049;-83
2023/04/20 14:08:00;;;;;;;3.53;2.20;;;;;;;13.43;54.06;101655.75;6276927;28;20053;-79
2023/04/20 14:11:02;;;;;;;6.30;2.92;;;;;;;13.23;55.31;101648.84;6277267;28;20474;-79